地図

経路データ

SID SEASON NUMBER BASIN SUBBASIN NAME ISO_TIME NATURE LAT LON WMO_WIND WMO_PRES WMO_AGENCY TRACK_TYPE DIST2LAND LANDFALL IFLAG USA_AGENCY USA_ATCF_ID USA_LAT USA_LON USA_RECORD USA_STATUS USA_WIND USA_PRES USA_SSHS USA_R34_NE USA_R34_SE USA_R34_SW USA_R34_NW USA_R50_NE USA_R50_SE USA_R50_SW USA_R50_NW USA_R64_NE USA_R64_SE USA_R64_SW USA_R64_NW USA_POCI USA_ROCI USA_RMW USA_EYE TOKYO_LAT TOKYO_LON TOKYO_GRADE TOKYO_WIND TOKYO_PRES TOKYO_R50_DIR TOKYO_R50_LONG TOKYO_R50_SHORT TOKYO_R30_DIR TOKYO_R30_LONG TOKYO_R30_SHORT TOKYO_LAND CMA_LAT CMA_LON CMA_CAT CMA_WIND CMA_PRES HKO_LAT HKO_LON HKO_CAT HKO_WIND HKO_PRES NEWDELHI_LAT NEWDELHI_LON NEWDELHI_GRADE NEWDELHI_WIND NEWDELHI_PRES NEWDELHI_CI NEWDELHI_DP NEWDELHI_POCI REUNION_LAT REUNION_LON REUNION_TYPE REUNION_WIND REUNION_PRES REUNION_TNUM REUNION_CI REUNION_RMW REUNION_R34_NE REUNION_R34_SE REUNION_R34_SW REUNION_R34_NW REUNION_R50_NE REUNION_R50_SE REUNION_R50_SW REUNION_R50_NW REUNION_R64_NE REUNION_R64_SE REUNION_R64_SW REUNION_R64_NW BOM_LAT BOM_LON BOM_TYPE BOM_WIND BOM_PRES BOM_TNUM BOM_CI BOM_RMW BOM_R34_NE BOM_R34_SE BOM_R34_SW BOM_R34_NW BOM_R50_NE BOM_R50_SE BOM_R50_SW BOM_R50_NW BOM_R64_NE BOM_R64_SE BOM_R64_SW BOM_R64_NW BOM_ROCI BOM_POCI BOM_EYE BOM_POS_METHOD BOM_PRES_METHOD NADI_LAT NADI_LON NADI_CAT NADI_WIND NADI_PRES WELLINGTON_LAT WELLINGTON_LON WELLINGTON_WIND WELLINGTON_PRES DS824_LAT DS824_LON DS824_STAGE DS824_WIND DS824_PRES TD9636_LAT TD9636_LON TD9636_STAGE TD9636_WIND TD9636_PRES TD9635_LAT TD9635_LON TD9635_WIND TD9635_PRES TD9635_ROCI NEUMANN_LAT NEUMANN_LON NEUMANN_CLASS NEUMANN_WIND NEUMANN_PRES MLC_LAT MLC_LON MLC_CLASS MLC_WIND MLC_PRES USA_GUST BOM_GUST BOM_GUST_PER REUNION_GUST REUNION_GUST_PER USA_SEAHGT USA_SEARAD_NE USA_SEARAD_SE USA_SEARAD_SW USA_SEARAD_NW STORM_SPEED STORM_DIR
1904213N21136 1904 24 WP MM NOT_NAMED 1904-07-30 13:00:00 NR 21.0000 135.800 main 1227 1163 __________O___ -1 21.0000 135.800 7 16 333
1904213N21136 1904 24 WP MM NOT_NAMED 1904-07-30 15:00:00 NR 21.4817 135.539 main 1163 1079 __________P___ -1 21.4817 135.539 7 16 333
1904213N21136 1904 24 WP MM NOT_NAMED 1904-07-30 18:00:00 NR 22.1858 135.155 main 1079 1001 __________P___ -1 22.1858 135.155 7 15 333
1904213N21136 1904 24 WP MM NOT_NAMED 1904-07-30 21:00:00 NR 22.8432 134.799 main 1001 927 __________P___ -1 22.8432 134.799 7 14 334
1904213N21136 1904 24 WP MM NOT_NAMED 1904-07-31 00:00:00 NR 23.4266 134.489 main 927 903 __________P___ -1 23.4266 134.489 7 13 334
1904213N21136 1904 24 WP MM NOT_NAMED 1904-07-31 01:00:00 NR 23.6000 134.400 main 903 864 __________O___ -1 23.6000 134.400 7 11 335
1904213N21136 1904 24 WP MM NOT_NAMED 1904-07-31 03:00:00 NR 23.9121 134.243 main 864 815 __________P___ -1 23.9121 134.243 7 9 335
1904213N21136 1904 24 WP MM NOT_NAMED 1904-07-31 06:00:00 NR 24.3112 134.041 main 815 766 __________P___ -1 24.3112 134.041 7 8 334
1904213N21136 1904 24 WP MM NOT_NAMED 1904-07-31 09:00:00 NR 24.6584 133.841 main 766 727 __________P___ -1 24.6584 133.841 7 8 329
1904213N21136 1904 24 WP MM NOT_NAMED 1904-07-31 12:00:00 NR 24.9881 133.598 main 727 713 __________P___ -1 24.9881 133.598 7 8 325
1904213N21136 1904 24 WP MM NOT_NAMED 1904-07-31 13:00:00 NR 25.1000 133.500 main 713 681 __________O___ -1 25.1000 133.500 7 10 315
1904213N21136 1904 24 WP MM NOT_NAMED 1904-07-31 15:00:00 NR 25.3431 133.208 main 681 623 __________P___ -1 25.3431 133.208 7 11 310
1904213N21136 1904 24 WP MM NOT_NAMED 1904-07-31 18:00:00 NR 25.7072 132.712 main 623 566 __________P___ -1 25.7072 132.712 7 12 309
1904213N21136 1904 24 WP MM NOT_NAMED 1904-07-31 21:00:00 NR 26.0781 132.217 main 566 513 __________P___ -1 26.0781 132.217 7 11 313
1904213N21136 1904 24 WP MM NOT_NAMED 1904-08-01 00:00:00 NR 26.4654 131.805 main 513 500 __________P___ -1 26.4654 131.805 7 10 318
1904213N21136 1904 24 WP MM NOT_NAMED 1904-08-01 01:00:00 NR 26.6000 131.700 main 500 465 __________O___ -1 26.6000 131.700 7 10 333
1904213N21136 1904 24 WP MM NOT_NAMED 1904-08-01 03:00:00 NR 26.9056 131.554 main 465 407 __________P___ -1 26.9056 131.554 7 10 344
1904213N21136 1904 24 WP MM NOT_NAMED 1904-08-01 06:00:00 NR 27.3842 131.442 main 407 352 __________P___ -1 27.3842 131.442 7 10 354
1904213N21136 1904 24 WP MM NOT_NAMED 1904-08-01 09:00:00 NR 27.8537 131.445 main 352 311 __________P___ -1 27.8537 131.445 7 9 6
1904213N21136 1904 24 WP MM NOT_NAMED 1904-08-01 12:00:00 NR 28.2762 131.547 main 311 302 __________P___ -1 28.2762 131.547 7 8 14
1904213N21136 1904 24 WP MM NOT_NAMED 1904-08-01 13:00:00 NR 28.4000 131.600 main 302 284 __________O___ -1 28.4000 131.600 7 8 26
1904213N21136 1904 24 WP MM NOT_NAMED 1904-08-01 15:00:00 NR 28.6168 131.731 main 284 261 __________P___ -1 28.6168 131.731 7 7 35
1904213N21136 1904 24 WP MM NOT_NAMED 1904-08-01 18:00:00 NR 28.8762 131.979 main 265 256 __________P___ -1 28.8762 131.979 7 7 46
1904213N21136 1904 24 WP MM NOT_NAMED 1904-08-01 21:00:00 NR 29.0782 132.272 main 261 258 __________P___ -1 29.0782 132.272 7 7 55
1904213N21136 1904 24 WP MM NOT_NAMED 1904-08-02 00:00:00 NR 29.2470 132.591 main 271 261 __________P___ -1 29.2470 132.591 7 7 59
1904213N21136 1904 24 WP MM NOT_NAMED 1904-08-02 01:00:00 NR 29.3000 132.700 main 265 __________O___ -1 29.3000 132.700 7 7 62

デジタル台風データ・検索

IBTrACS Databaseについて

本データベースは、米国NOAAが公開する1842年以降の世界の熱帯低気圧のベストトラックデータアーカイブInternational Best Track Archive for Climate Stewardship (IBTrACS)を、ウェブで閲覧しやすい形式に変換したものです。

最終更新日:2021-10-27